Alpena, MI

9:10 AM EST on December 06, 2016 (GMT -0500)
Oliver Street / Third Avenue | | Change Station

Elev 597 ft 45.05 °N, 83.45 °W | Updated 6 minutes ago

Partly Cloudy
Partly Cloudy
33.5 °F
Feels Like 34 °F
N
0.0
Wind Variable Wind from WSW
Gusts 0.0 mph

Today
High -- | Low -- °F
--% Chance of Precip.
Yesterday
High -- | Low -- °F
Precip. -- in
Pressure 29.96 in
Visibility 3.0 miles
Clouds Few 2600 ft
Windchill 34 °F
Dew Point 32 °F
Humidity 95%
Rainfall 0.00 in
Snow Depth Not available.
7:57 AM 4:52 PM
Waxing Crescent, 42% visible
METAR KAPN 061354Z AUTO 00000KT 3SM BR FEW026 M01/M02 A2993 RMK AO2 SLP143 T10061017
Pressure 29.96 in
Visibility 3.0 miles
Clouds Few 2600 ft
Windchill 34 °F
Dew Point 32 °F
Humidity 95%
Rainfall 0.00 in
Snow Depth Not available.
7:57 AM 4:52 PM
Waxing Crescent, 42% visible
METAR KAPN 061354Z AUTO 00000KT 3SM BR FEW026 M01/M02 A2993 RMK AO2 SLP143 T10061017

10-Day Weather Forecast

Almanac

Astronomy

Dec. 06, 2016 Rise Set
Actual Time
Civil Twilight
Nautical Twilight
Astronomical Twilight
Moon
Length of Visible Light
Length of Day
Tomorrow will be .
, % of the Moon is Illuminated

Today's Extremes

State Highs State Lows

Community

WunderPhotos

Upload Photos

1,955,949 photos uploaded!

WunderBlog® & News

Nearby

Air Quality

  Air Quality AQ Index Pollutant
Not available.

Snow Depth

Station Depth Elevation

Earthquake Activity

City Distance Mag. Time & Date
Minimum magnitude displayed is 2.5.

Coastal Water Temperatures

Place Temperature

Stations

Nearby Weather Stations

Station Location Temp. Windchill Dew Point Humidity Wind Precip. Elev Updated Type
                   

Watches & Warnings

There are currently no watches in effect.